Skip to main content

NOAA/GLERL Met Station at Chicago, IL

Previous 3 Hours (2 minute increments)
See also Previous 5 Days (top of hour)
Jump down to Data
Switch to [English][Metric]
Zoom: Click and drag, Pan: shift-click and drag, Unzoom: double-click, Unzoom All




See also 1-day windrose plot


NOAA/GLERL Met Station at Chicago, IL

Previous 3 Hours (2 minute increments)
See also Previous 5 Days (top of hour only)
Jump up to Graphs
Switch to [English][Metric]
                  Wind  Wind  Wind   Air   Dew   Rel
                   Spd   Gst   Dir  Temp    Pt   Hum
YYYY-MM-DD   CDT   kts   kts   deg     F     F     %
2017-04-28 16:36  12.6  13.8    53  47.1  44.5  90.4
2017-04-28 16:34  13.6  15.4    56  46.9  44.4  90.8
2017-04-28 16:32  13.0  14.8    52  46.9  44.4  90.6
2017-04-28 16:30  15.2  16.1    52  46.8  44.3  90.9
2017-04-28 16:28  14.6  16.1    50  46.8  44.3  91.0
2017-04-28 16:26  15.4  16.5    49  46.8  44.1  90.4
2017-04-28 16:24  15.0  16.1    48  46.9  44.3  90.5
2017-04-28 16:22  14.6  15.9    49  46.9  44.4  90.6
2017-04-28 16:20  15.0  15.7    51  46.9  44.2  90.1
2017-04-28 16:18  14.2  15.4    53  46.9  44.2  90.1
2017-04-28 16:16  14.8  15.7    57  46.9  44.1  89.8
2017-04-28 16:14  14.4  15.4    58  47.1  44.5  90.6
2017-04-28 16:12  14.6  15.6    59  46.9  44.2  89.9
2017-04-28 16:10  15.4  16.5    60  47.1  44.3  89.9
2017-04-28 16:08  16.3  17.1    59  47.1  44.2  89.5
2017-04-28 16:06  15.0  16.7    59  47.1  44.5  90.5
2017-04-28 16:04  14.8  15.9    58  47.1  44.4  90.0
2017-04-28 16:02  14.4  15.6    55  47.1  44.4  90.2
2017-04-28 16:00  14.4  15.4    54  47.3  44.6  90.2
2017-04-28 15:58  13.8  14.8    55  47.3  44.6  90.3
2017-04-28 15:56  12.8  13.4    54  47.3  44.7  90.5
2017-04-28 15:54  12.2  12.6    54  47.3  44.6  90.3
2017-04-28 15:52  11.5  12.4    54  47.3  44.7  90.4
2017-04-28 15:50  11.7  12.8    54  47.1  44.4  90.1
2017-04-28 15:48  11.5  13.2    54  47.1  44.3  89.8
2017-04-28 15:46  12.6  13.8    56  46.9  44.1  89.8
2017-04-28 15:44  12.6  13.8    57  47.1  44.3  89.8
2017-04-28 15:42  12.6  13.8    57  46.9  43.9  88.9
2017-04-28 15:40  14.0  15.0    59  46.9  43.9  89.0
2017-04-28 15:38  12.6  13.4    61  47.1  44.2  89.5
2017-04-28 15:36  11.5  12.1    62  46.9  43.9  89.1
2017-04-28 15:34  11.7  12.6    62  46.9  43.9  89.1
2017-04-28 15:32  11.7  13.0    63  46.9  44.1  89.6
2017-04-28 15:30  11.3  12.1    61  46.9  44.0  89.3
2017-04-28 15:28  11.9  13.2    62  46.9  43.9  89.2
2017-04-28 15:26  12.1  13.2    62  46.8  43.8  89.3
2017-04-28 15:24  11.1  12.2    65  46.9  44.1  89.7
2017-04-28 15:22  10.5  11.7    63  46.9  44.0  89.3
2017-04-28 15:20  10.1  11.1    63  46.9  43.8  88.7
2017-04-28 15:18  10.3  11.1    65  46.9  43.8  88.7
2017-04-28 15:16   8.7   9.3    65  46.9  43.8  88.8
2017-04-28 15:14   8.0   8.9    67  46.9  43.9  88.9
2017-04-28 15:12   7.2   8.2    65  46.9  43.9  89.0
2017-04-28 15:10   6.0   7.4    69  46.9  43.9  89.1
2017-04-28 15:08   6.6   7.8    68  46.9  43.9  88.9
2017-04-28 15:06   5.6   6.2    64  46.9  43.9  88.9
2017-04-28 15:04   6.2   6.8    68  46.8  43.6  88.6
2017-04-28 15:02   6.8   7.6    69  46.8  43.5  88.4
2017-04-28 15:00   8.6   9.1    73  46.6  43.4  88.4
2017-04-28 14:58   9.3   9.9    71  46.8  43.6  88.6
2017-04-28 14:56   8.9   9.5    70  46.8  43.7  88.9
2017-04-28 14:54   8.9   9.3    71  46.6  43.4  88.6
2017-04-28 14:52   8.7   9.1    71  46.8  43.6  88.5
2017-04-28 14:50   8.6   9.1    75  46.8  43.6  88.7
2017-04-28 14:48   7.8   8.6    68  46.8  43.7  88.8
2017-04-28 14:46   8.0   8.6    72  46.8  43.5  88.4
2017-04-28 14:44   8.4   8.7    75  46.8  43.4  88.0
2017-04-28 14:42   8.9   9.1    81  46.8  43.3  87.6
2017-04-28 14:40   8.7   9.5    82  46.8  43.4  87.9
2017-04-28 14:38   8.6   9.1    82  46.9  43.6  88.1
2017-04-28 14:36   8.0   8.6    82  46.9  43.7  88.2
2017-04-28 14:34   7.6   8.4    80  46.9  43.6  88.0
2017-04-28 14:32   8.6   9.1    78  46.9  43.5  87.8
2017-04-28 14:30   8.0   8.7    73  46.9  43.7  88.4
2017-04-28 14:28   8.2   8.6    67  46.8  43.5  88.4
2017-04-28 14:26   7.0   8.2    55  46.6  43.4  88.5
2017-04-28 14:24   6.6   7.8    52  46.6  43.4  88.5
2017-04-28 14:22   5.8   6.4    54  46.6  43.5  88.8
2017-04-28 14:20   6.0   6.8    55  46.4  43.3  88.7
2017-04-28 14:18   6.8   7.4    57  46.6  43.5  88.8
2017-04-28 14:16   6.8   7.6    59  46.6  43.5  89.0
2017-04-28 14:14   7.2   8.0    63  46.6  43.5  89.0
2017-04-28 14:12   6.4   7.0    65  46.6  43.6  89.3
2017-04-28 14:10   7.0   8.0    65  46.6  43.6  89.2
2017-04-28 14:08   8.0   8.6    64  46.6  43.6  89.1
2017-04-28 14:06   8.0   8.9    68  46.6  43.6  89.2
2017-04-28 14:04   7.2   8.0    61  46.8  43.8  89.4
2017-04-28 14:02   7.4   8.2    62  46.8  43.8  89.4
2017-04-28 14:00   8.2   8.6    51  46.6  43.7  89.4
2017-04-28 13:58   7.8   8.7    46  46.6  43.6  89.2
2017-04-28 13:56   7.6   8.4    42  46.6  43.5  89.0
2017-04-28 13:54   7.8   8.4    42  46.6  43.6  89.2
2017-04-28 13:52   8.2   9.1    48  46.4  43.3  88.8
2017-04-28 13:50   9.1   9.9    56  46.4  43.4  89.0
2017-04-28 13:48   9.7  10.7    57  46.4  43.3  88.9
2017-04-28 13:46  10.1  11.1    54  46.2  43.1  88.8
2017-04-28 13:44  10.1  11.1    51  46.2  43.0  88.5
2017-04-28 13:42   9.7  10.5    58  46.2  42.9  88.1
2017-04-28 13:40  10.3  11.1    70  46.0  42.6  87.7
2017-04-28 13:38   9.9  10.5    69  46.2  42.8  87.6
2017-04-28 13:36   9.1   9.9    69  46.2  42.7  87.4